sensor_id;sensor_type;location;lat;lon;timestamp;P1;durP1;ratioP1;P2;durP2;ratioP2
70414;SDS011;57837;52.064;113.478;2023-02-28T00:01:50;17.30;;;6.30;;
70414;SDS011;57837;52.064;113.478;2023-02-28T00:04:55;26.90;;;11.40;;
70414;SDS011;57837;52.064;113.478;2023-02-28T00:08:04;33.75;;;13.57;;
70414;SDS011;57837;52.064;113.478;2023-02-28T00:11:12;97.90;;;32.80;;
70414;SDS011;57837;52.064;113.478;2023-02-28T00:14:16;49.15;;;16.55;;
70414;SDS011;57837;52.064;113.478;2023-02-28T00:17:19;45.72;;;14.93;;
70414;SDS011;57837;52.064;113.478;2023-02-28T00:20:26;58.65;;;17.75;;
70414;SDS011;57837;52.064;113.478;2023-02-28T00:23:29;46.65;;;17.83;;
70414;SDS011;57837;52.064;113.478;2023-02-28T00:26:32;33.33;;;14.80;;
70414;SDS011;57837;52.064;113.478;2023-02-28T00:29:35;38.53;;;14.20;;
70414;SDS011;57837;52.064;113.478;2023-02-28T00:32:39;32.55;;;11.05;;
70414;SDS011;57837;52.064;113.478;2023-02-28T00:35:43;24.07;;;8.97;;
70414;SDS011;57837;52.064;113.478;2023-02-28T00:38:49;25.83;;;8.60;;
70414;SDS011;57837;52.064;113.478;2023-02-28T00:41:53;25.77;;;9.93;;
70414;SDS011;57837;52.064;113.478;2023-02-28T00:44:56;24.35;;;9.45;;
70414;SDS011;57837;52.064;113.478;2023-02-28T00:47:59;16.15;;;8.43;;
70414;SDS011;57837;52.064;113.478;2023-02-28T00:51:03;27.27;;;10.40;;
70414;SDS011;57837;52.064;113.478;2023-02-28T00:54:07;23.75;;;10.00;;
70414;SDS011;57837;52.064;113.478;2023-02-28T00:57:10;19.00;;;6.87;;
70414;SDS011;57837;52.064;113.478;2023-02-28T01:00:14;33.20;;;10.63;;
70414;SDS011;57837;52.064;113.478;2023-02-28T01:03:18;19.50;;;9.38;;
70414;SDS011;57837;52.064;113.478;2023-02-28T01:06:23;17.50;;;7.43;;
70414;SDS011;57837;52.064;113.478;2023-02-28T01:09:26;15.60;;;5.97;;
70414;SDS011;57837;52.064;113.478;2023-02-28T01:12:32;22.40;;;10.27;;
70414;SDS011;57837;52.064;113.478;2023-02-28T01:15:36;38.00;;;12.38;;
70414;SDS011;57837;52.064;113.478;2023-02-28T01:18:42;45.57;;;15.27;;
70414;SDS011;57837;52.064;113.478;2023-02-28T01:21:46;28.20;;;11.13;;
70414;SDS011;57837;52.064;113.478;2023-02-28T01:24:50;19.50;;;9.00;;
70414;SDS011;57837;52.064;113.478;2023-02-28T01:27:53;20.83;;;6.57;;
70414;SDS011;57837;52.064;113.478;2023-02-28T01:30:57;13.55;;;5.22;;
70414;SDS011;57837;52.064;113.478;2023-02-28T01:34:00;15.10;;;6.93;;
70414;SDS011;57837;52.064;113.478;2023-02-28T01:37:03;16.88;;;7.88;;
70414;SDS011;57837;52.064;113.478;2023-02-28T01:40:08;17.35;;;7.10;;
70414;SDS011;57837;52.064;113.478;2023-02-28T01:43:25;13.60;;;5.85;;
70414;SDS011;57837;52.064;113.478;2023-02-28T01:46:34;15.27;;;5.50;;
70414;SDS011;57837;52.064;113.478;2023-02-28T01:49:39;18.10;;;5.57;;
70414;SDS011;57837;52.064;113.478;2023-02-28T01:52:43;13.77;;;5.82;;
70414;SDS011;57837;52.064;113.478;2023-02-28T01:55:48;18.52;;;5.18;;
70414;SDS011;57837;52.064;113.478;2023-02-28T01:58:55;11.88;;;4.10;;
70414;SDS011;57837;52.064;113.478;2023-02-28T02:01:59;12.27;;;4.72;;
70414;SDS011;57837;52.064;113.478;2023-02-28T02:05:10;7.60;;;3.70;;
70414;SDS011;57837;52.064;113.478;2023-02-28T02:08:24;23.60;;;8.93;;
70414;SDS011;57837;52.064;113.478;2023-02-28T02:11:31;24.55;;;7.20;;
70414;SDS011;57837;52.064;113.478;2023-02-28T02:18:00;12.43;;;5.72;;
70414;SDS011;57837;52.064;113.478;2023-02-28T02:40:58;24.40;;;9.95;;
70414;SDS011;57837;52.064;113.478;2023-02-28T02:44:38;23.98;;;10.50;;
70414;SDS011;57837;52.064;113.478;2023-02-28T02:47:43;56.00;;;22.27;;
70414;SDS011;57837;52.064;113.478;2023-02-28T02:50:49;42.08;;;15.63;;
70414;SDS011;57837;52.064;113.478;2023-02-28T02:54:03;25.60;;;11.60;;
70414;SDS011;57837;52.064;113.478;2023-02-28T02:57:11;28.42;;;12.80;;
70414;SDS011;57837;52.064;113.478;2023-02-28T03:00:48;17.65;;;7.47;;
70414;SDS011;57837;52.064;113.478;2023-02-28T03:03:57;26.15;;;9.38;;
70414;SDS011;57837;52.064;113.478;2023-02-28T03:07:04;18.77;;;7.65;;
70414;SDS011;57837;52.064;113.478;2023-02-28T03:23:39;6.07;;;3.10;;
70414;SDS011;57837;52.064;113.478;2023-02-28T03:26:52;5.87;;;3.47;;
70414;SDS011;57837;52.064;113.478;2023-02-28T03:30:05;8.40;;;3.50;;
70414;SDS011;57837;52.064;113.478;2023-02-28T03:33:18;9.23;;;3.58;;
70414;SDS011;57837;52.064;113.478;2023-02-28T03:36:27;9.60;;;3.95;;
70414;SDS011;57837;52.064;113.478;2023-02-28T03:39:55;9.25;;;4.28;;
70414;SDS011;57837;52.064;113.478;2023-02-28T03:43:04;12.10;;;4.63;;
70414;SDS011;57837;52.064;113.478;2023-02-28T03:46:16;9.77;;;3.92;;
70414;SDS011;57837;52.064;113.478;2023-02-28T03:49:25;6.65;;;3.60;;
70414;SDS011;57837;52.064;113.478;2023-02-28T03:52:34;6.38;;;3.28;;
70414;SDS011;57837;52.064;113.478;2023-02-28T03:55:42;5.75;;;2.80;;
70414;SDS011;57837;52.064;113.478;2023-02-28T03:58:54;6.80;;;3.13;;
70414;SDS011;57837;52.064;113.478;2023-02-28T04:02:04;4.63;;;2.42;;
70414;SDS011;57837;52.064;113.478;2023-02-28T04:05:08;5.25;;;2.90;;
70414;SDS011;57837;52.064;113.478;2023-02-28T04:08:11;7.10;;;3.60;;
70414;SDS011;57837;52.064;113.478;2023-02-28T04:14:24;5.67;;;2.70;;
70414;SDS011;57837;52.064;113.478;2023-02-28T04:17:29;8.18;;;3.70;;
70414;SDS011;57837;52.064;113.478;2023-02-28T04:20:33;7.97;;;3.15;;
70414;SDS011;57837;52.064;113.478;2023-02-28T04:23:36;5.88;;;2.60;;
70414;SDS011;57837;52.064;113.478;2023-02-28T04:26:40;5.97;;;2.55;;
70414;SDS011;57837;52.064;113.478;2023-02-28T04:29:46;7.53;;;3.37;;
70414;SDS011;57837;52.064;113.478;2023-02-28T04:32:50;6.72;;;3.53;;
70414;SDS011;57837;52.064;113.478;2023-02-28T04:36:03;7.85;;;3.78;;
70414;SDS011;57837;52.064;113.478;2023-02-28T04:39:09;7.30;;;3.08;;
70414;SDS011;57837;52.064;113.478;2023-02-28T04:42:13;5.70;;;3.10;;
70414;SDS011;57837;52.064;113.478;2023-02-28T04:45:16;11.63;;;3.90;;
70414;SDS011;57837;52.064;113.478;2023-02-28T04:48:20;7.68;;;3.90;;
70414;SDS011;57837;52.064;113.478;2023-02-28T04:51:23;9.93;;;3.90;;
70414;SDS011;57837;52.064;113.478;2023-02-28T04:54:27;7.60;;;3.10;;
70414;SDS011;57837;52.064;113.478;2023-02-28T04:57:31;11.35;;;4.35;;
70414;SDS011;57837;52.064;113.478;2023-02-28T05:00:35;5.93;;;3.00;;
70414;SDS011;57837;52.064;113.478;2023-02-28T05:03:39;6.85;;;2.83;;
70414;SDS011;57837;52.064;113.478;2023-02-28T05:06:45;7.28;;;3.58;;
70414;SDS011;57837;52.064;113.478;2023-02-28T05:09:49;10.98;;;4.20;;
70414;SDS011;57837;52.064;113.478;2023-02-28T05:12:54;15.90;;;4.70;;
70414;SDS011;57837;52.064;113.478;2023-02-28T05:15:58;12.50;;;4.50;;
70414;SDS011;57837;52.064;113.478;2023-02-28T05:19:01;9.63;;;3.10;;
70414;SDS011;57837;52.064;113.478;2023-02-28T05:22:04;5.50;;;2.60;;
70414;SDS011;57837;52.064;113.478;2023-02-28T05:25:09;4.40;;;2.35;;
70414;SDS011;57837;52.064;113.478;2023-02-28T05:28:15;7.90;;;3.33;;
70414;SDS011;57837;52.064;113.478;2023-02-28T05:31:20;6.50;;;2.80;;
70414;SDS011;57837;52.064;113.478;2023-02-28T05:34:25;6.10;;;2.58;;
70414;SDS011;57837;52.064;113.478;2023-02-28T05:37:28;6.07;;;2.88;;
70414;SDS011;57837;52.064;113.478;2023-02-28T05:40:32;6.55;;;3.17;;
70414;SDS011;57837;52.064;113.478;2023-02-28T05:43:36;4.80;;;2.65;;
70414;SDS011;57837;52.064;113.478;2023-02-28T05:46:41;5.83;;;2.80;;
70414;SDS011;57837;52.064;113.478;2023-02-28T05:49:45;8.18;;;3.85;;
70414;SDS011;57837;52.064;113.478;2023-02-28T05:52:49;9.82;;;4.50;;
70414;SDS011;57837;52.064;113.478;2023-02-28T05:55:54;10.10;;;4.07;;
70414;SDS011;57837;52.064;113.478;2023-02-28T05:58:57;8.77;;;4.63;;
70414;SDS011;57837;52.064;113.478;2023-02-28T06:02:01;8.40;;;2.53;;
70414;SDS011;57837;52.064;113.478;2023-02-28T06:05:05;4.70;;;2.20;;
70414;SDS011;57837;52.064;113.478;2023-02-28T06:08:12;5.30;;;2.33;;
70414;SDS011;57837;52.064;113.478;2023-02-28T06:11:16;5.32;;;2.30;;
70414;SDS011;57837;52.064;113.478;2023-02-28T06:14:20;8.82;;;3.65;;
70414;SDS011;57837;52.064;113.478;2023-02-28T06:17:24;9.77;;;4.30;;
70414;SDS011;57837;52.064;113.478;2023-02-28T06:20:28;10.75;;;4.55;;
70414;SDS011;57837;52.064;113.478;2023-02-28T06:23:32;9.77;;;3.55;;
70414;SDS011;57837;52.064;113.478;2023-02-28T06:26:36;6.28;;;3.40;;
70414;SDS011;57837;52.064;113.478;2023-02-28T06:29:39;6.53;;;2.60;;
70414;SDS011;57837;52.064;113.478;2023-02-28T06:32:43;7.97;;;3.60;;
70414;SDS011;57837;52.064;113.478;2023-02-28T06:35:49;5.30;;;2.53;;
70414;SDS011;57837;52.064;113.478;2023-02-28T06:38:54;5.93;;;2.55;;
70414;SDS011;57837;52.064;113.478;2023-02-28T06:41:59;3.17;;;1.73;;
70414;SDS011;57837;52.064;113.478;2023-02-28T06:45:03;8.82;;;4.28;;
70414;SDS011;57837;52.064;113.478;2023-02-28T06:48:12;15.07;;;4.50;;
70414;SDS011;57837;52.064;113.478;2023-02-28T06:51:16;7.03;;;3.55;;
70414;SDS011;57837;52.064;113.478;2023-02-28T06:54:23;8.32;;;3.60;;
70414;SDS011;57837;52.064;113.478;2023-02-28T06:57:27;9.40;;;3.47;;
70414;SDS011;57837;52.064;113.478;2023-02-28T07:00:33;7.68;;;3.47;;
70414;SDS011;57837;52.064;113.478;2023-02-28T07:03:36;5.40;;;2.47;;
70414;SDS011;57837;52.064;113.478;2023-02-28T07:06:39;6.95;;;3.35;;
70414;SDS011;57837;52.064;113.478;2023-02-28T07:09:43;9.60;;;4.00;;
70414;SDS011;57837;52.064;113.478;2023-02-28T07:12:47;12.50;;;4.32;;
70414;SDS011;57837;52.064;113.478;2023-02-28T07:16:02;13.13;;;5.15;;
70414;SDS011;57837;52.064;113.478;2023-02-28T07:19:06;7.03;;;3.03;;
70414;SDS011;57837;52.064;113.478;2023-02-28T07:22:10;5.20;;;3.05;;
70414;SDS011;57837;52.064;113.478;2023-02-28T07:25:16;11.00;;;3.75;;
70414;SDS011;57837;52.064;113.478;2023-02-28T07:28:19;9.63;;;3.35;;
70414;SDS011;57837;52.064;113.478;2023-02-28T07:31:22;7.63;;;3.17;;
70414;SDS011;57837;52.064;113.478;2023-02-28T07:34:25;8.00;;;2.93;;
70414;SDS011;57837;52.064;113.478;2023-02-28T07:37:28;9.50;;;3.45;;
70414;SDS011;57837;52.064;113.478;2023-02-28T07:40:34;5.95;;;2.95;;
70414;SDS011;57837;52.064;113.478;2023-02-28T07:43:38;8.13;;;3.45;;
70414;SDS011;57837;52.064;113.478;2023-02-28T07:46:41;9.27;;;3.50;;
70414;SDS011;57837;52.064;113.478;2023-02-28T07:49:45;4.63;;;2.10;;
70414;SDS011;57837;52.064;113.478;2023-02-28T07:52:49;8.95;;;3.60;;
70414;SDS011;57837;52.064;113.478;2023-02-28T07:55:55;8.05;;;3.47;;
70414;SDS011;57837;52.064;113.478;2023-02-28T07:59:00;5.22;;;2.17;;
70414;SDS011;57837;52.064;113.478;2023-02-28T08:02:04;8.18;;;2.90;;
70414;SDS011;57837;52.064;113.478;2023-02-28T08:05:08;9.13;;;4.50;;
70414;SDS011;57837;52.064;113.478;2023-02-28T08:08:12;7.53;;;3.97;;
70414;SDS011;57837;52.064;113.478;2023-02-28T08:11:15;6.95;;;3.05;;
70414;SDS011;57837;52.064;113.478;2023-02-28T08:14:19;7.57;;;3.65;;
70414;SDS011;57837;52.064;113.478;2023-02-28T08:17:23;10.63;;;3.58;;
70414;SDS011;57837;52.064;113.478;2023-02-28T08:20:26;8.30;;;3.83;;
70414;SDS011;57837;52.064;113.478;2023-02-28T08:23:30;8.02;;;3.75;;
70414;SDS011;57837;52.064;113.478;2023-02-28T08:26:33;7.45;;;4.03;;
70414;SDS011;57837;52.064;113.478;2023-02-28T08:29:37;9.82;;;3.72;;
70414;SDS011;57837;52.064;113.478;2023-02-28T08:32:41;5.82;;;2.47;;
70414;SDS011;57837;52.064;113.478;2023-02-28T08:35:45;6.07;;;3.00;;
70414;SDS011;57837;52.064;113.478;2023-02-28T08:38:48;6.95;;;3.20;;
70414;SDS011;57837;52.064;113.478;2023-02-28T08:41:52;7.57;;;2.65;;
70414;SDS011;57837;52.064;113.478;2023-02-28T08:45:08;6.85;;;3.15;;
70414;SDS011;57837;52.064;113.478;2023-02-28T08:48:11;8.40;;;3.50;;
70414;SDS011;57837;52.064;113.478;2023-02-28T08:51:16;13.75;;;4.68;;
70414;SDS011;57837;52.064;113.478;2023-02-28T08:54:29;12.57;;;5.45;;
70414;SDS011;57837;52.064;113.478;2023-02-28T08:57:33;14.93;;;5.38;;
70414;SDS011;57837;52.064;113.478;2023-02-28T09:00:36;17.13;;;5.97;;
70414;SDS011;57837;52.064;113.478;2023-02-28T09:03:40;14.95;;;5.70;;
70414;SDS011;57837;52.064;113.478;2023-02-28T09:06:44;22.13;;;5.32;;
70414;SDS011;57837;52.064;113.478;2023-02-28T09:09:48;14.90;;;6.53;;
70414;SDS011;57837;52.064;113.478;2023-02-28T09:13:22;16.37;;;6.07;;
70414;SDS011;57837;52.064;113.478;2023-02-28T09:16:25;16.52;;;8.02;;
70414;SDS011;57837;52.064;113.478;2023-02-28T09:19:29;25.63;;;8.50;;
70414;SDS011;57837;52.064;113.478;2023-02-28T09:22:34;19.33;;;9.48;;
70414;SDS011;57837;52.064;113.478;2023-02-28T09:25:40;23.43;;;8.13;;
70414;SDS011;57837;52.064;113.478;2023-02-28T09:28:50;16.05;;;5.15;;
70414;SDS011;57837;52.064;113.478;2023-02-28T09:31:54;26.90;;;7.07;;
70414;SDS011;57837;52.064;113.478;2023-02-28T09:34:58;16.70;;;7.28;;
70414;SDS011;57837;52.064;113.478;2023-02-28T09:38:02;11.03;;;4.53;;
70414;SDS011;57837;52.064;113.478;2023-02-28T09:44:31;14.98;;;6.25;;
70414;SDS011;57837;52.064;113.478;2023-02-28T09:47:39;13.30;;;5.93;;
70414;SDS011;57837;52.064;113.478;2023-02-28T09:50:48;13.93;;;5.83;;
70414;SDS011;57837;52.064;113.478;2023-02-28T09:53:54;18.00;;;7.40;;
70414;SDS011;57837;52.064;113.478;2023-02-28T10:00:37;20.83;;;8.67;;
70414;SDS011;57837;52.064;113.478;2023-02-28T10:03:47;19.00;;;9.40;;
70414;SDS011;57837;52.064;113.478;2023-02-28T10:10:49;31.63;;;11.43;;
70414;SDS011;57837;52.064;113.478;2023-02-28T10:17:21;31.20;;;11.75;;
70414;SDS011;57837;52.064;113.478;2023-02-28T10:20:30;24.85;;;9.00;;
70414;SDS011;57837;52.064;113.478;2023-02-28T10:23:37;17.17;;;6.57;;
70414;SDS011;57837;52.064;113.478;2023-02-28T10:26:41;36.80;;;11.73;;
70414;SDS011;57837;52.064;113.478;2023-02-28T10:29:50;19.15;;;9.02;;
70414;SDS011;57837;52.064;113.478;2023-02-28T10:32:58;22.77;;;9.60;;
70414;SDS011;57837;52.064;113.478;2023-02-28T10:36:02;26.63;;;11.73;;
70414;SDS011;57837;52.064;113.478;2023-02-28T10:42:38;25.10;;;9.98;;
70414;SDS011;57837;52.064;113.478;2023-02-28T10:45:52;38.85;;;11.85;;
70414;SDS011;57837;52.064;113.478;2023-02-28T10:49:03;30.67;;;11.32;;
70414;SDS011;57837;52.064;113.478;2023-02-28T10:52:09;31.70;;;12.48;;
70414;SDS011;57837;52.064;113.478;2023-02-28T10:55:14;25.10;;;9.97;;
70414;SDS011;57837;52.064;113.478;2023-02-28T10:58:23;28.77;;;9.40;;
70414;SDS011;57837;52.064;113.478;2023-02-28T11:01:42;21.85;;;8.80;;
70414;SDS011;57837;52.064;113.478;2023-02-28T11:04:56;24.52;;;9.13;;
70414;SDS011;57837;52.064;113.478;2023-02-28T11:08:06;19.98;;;8.35;;
70414;SDS011;57837;52.064;113.478;2023-02-28T11:11:16;23.95;;;10.05;;
70414;SDS011;57837;52.064;113.478;2023-02-28T11:17:28;26.87;;;9.20;;
70414;SDS011;57837;52.064;113.478;2023-02-28T11:20:33;41.22;;;13.25;;
70414;SDS011;57837;52.064;113.478;2023-02-28T11:23:39;51.25;;;16.88;;
70414;SDS011;57837;52.064;113.478;2023-02-28T11:26:45;43.70;;;16.30;;
70414;SDS011;57837;52.064;113.478;2023-02-28T11:29:51;59.85;;;19.67;;
70414;SDS011;57837;52.064;113.478;2023-02-28T11:32:54;60.88;;;19.45;;
70414;SDS011;57837;52.064;113.478;2023-02-28T11:36:01;50.60;;;17.55;;
70414;SDS011;57837;52.064;113.478;2023-02-28T11:39:08;54.55;;;18.83;;
70414;SDS011;57837;52.064;113.478;2023-02-28T11:49:06;42.87;;;16.87;;
70414;SDS011;57837;52.064;113.478;2023-02-28T11:52:35;57.70;;;19.10;;
70414;SDS011;57837;52.064;113.478;2023-02-28T11:55:58;51.65;;;19.88;;
70414;SDS011;57837;52.064;113.478;2023-02-28T12:05:49;96.60;;;36.05;;
70414;SDS011;57837;52.064;113.478;2023-02-28T12:09:00;98.68;;;37.63;;
70414;SDS011;57837;52.064;113.478;2023-02-28T12:16:17;72.88;;;29.75;;
70414;SDS011;57837;52.064;113.478;2023-02-28T12:29:30;71.47;;;26.50;;
70414;SDS011;57837;52.064;113.478;2023-02-28T12:32:44;64.13;;;23.73;;
70414;SDS011;57837;52.064;113.478;2023-02-28T12:35:53;71.53;;;26.85;;
70414;SDS011;57837;52.064;113.478;2023-02-28T12:42:17;70.15;;;22.60;;
70414;SDS011;57837;52.064;113.478;2023-02-28T12:45:27;72.28;;;30.08;;
70414;SDS011;57837;52.064;113.478;2023-02-28T12:48:43;75.93;;;28.65;;
70414;SDS011;57837;52.064;113.478;2023-02-28T12:51:50;75.28;;;28.08;;
70414;SDS011;57837;52.064;113.478;2023-02-28T12:55:19;71.93;;;26.27;;
70414;SDS011;57837;52.064;113.478;2023-02-28T13:14:37;51.60;;;18.42;;
70414;SDS011;57837;52.064;113.478;2023-02-28T13:17:41;54.72;;;20.08;;
70414;SDS011;57837;52.064;113.478;2023-02-28T13:20:47;74.22;;;25.55;;
70414;SDS011;57837;52.064;113.478;2023-02-28T13:30:58;91.57;;;34.33;;
70414;SDS011;57837;52.064;113.478;2023-02-28T13:36:57;56.97;;;20.00;;
70414;SDS011;57837;52.064;113.478;2023-02-28T13:40:29;56.50;;;20.15;;
70414;SDS011;57837;52.064;113.478;2023-02-28T13:47:18;71.70;;;31.80;;
70414;SDS011;57837;52.064;113.478;2023-02-28T13:50:32;55.15;;;23.38;;
70414;SDS011;57837;52.064;113.478;2023-02-28T13:57:44;65.57;;;25.60;;
70414;SDS011;57837;52.064;113.478;2023-02-28T14:07:42;110.03;;;38.55;;
70414;SDS011;57837;52.064;113.478;2023-02-28T14:11:02;87.03;;;33.07;;
70414;SDS011;57837;52.064;113.478;2023-02-28T14:14:09;60.90;;;22.13;;
70414;SDS011;57837;52.064;113.478;2023-02-28T14:17:33;56.20;;;20.25;;
70414;SDS011;57837;52.064;113.478;2023-02-28T14:20:38;29.17;;;13.65;;
70414;SDS011;57837;52.064;113.478;2023-02-28T14:31:10;36.35;;;13.60;;
70414;SDS011;57837;52.064;113.478;2023-02-28T14:37:29;43.15;;;16.33;;
70414;SDS011;57837;52.064;113.478;2023-02-28T14:40:34;63.67;;;22.67;;
70414;SDS011;57837;52.064;113.478;2023-02-28T14:43:46;71.60;;;24.00;;
70414;SDS011;57837;52.064;113.478;2023-02-28T14:46:55;59.67;;;23.13;;
70414;SDS011;57837;52.064;113.478;2023-02-28T14:50:02;75.35;;;23.02;;
70414;SDS011;57837;52.064;113.478;2023-02-28T14:53:10;74.90;;;24.65;;
70414;SDS011;57837;52.064;113.478;2023-02-28T14:56:22;78.10;;;22.13;;
70414;SDS011;57837;52.064;113.478;2023-02-28T14:59:31;49.85;;;18.65;;
70414;SDS011;57837;52.064;113.478;2023-02-28T15:02:37;48.38;;;15.50;;
70414;SDS011;57837;52.064;113.478;2023-02-28T15:05:41;27.17;;;10.90;;
70414;SDS011;57837;52.064;113.478;2023-02-28T15:08:44;35.28;;;15.18;;
70414;SDS011;57837;52.064;113.478;2023-02-28T15:11:48;59.20;;;19.95;;
70414;SDS011;57837;52.064;113.478;2023-02-28T15:14:53;60.87;;;21.43;;
70414;SDS011;57837;52.064;113.478;2023-02-28T15:17:57;39.97;;;14.13;;
70414;SDS011;57837;52.064;113.478;2023-02-28T15:21:04;82.10;;;30.95;;
70414;SDS011;57837;52.064;113.478;2023-02-28T15:24:13;50.95;;;22.67;;
70414;SDS011;57837;52.064;113.478;2023-02-28T15:27:30;65.85;;;19.63;;
70414;SDS011;57837;52.064;113.478;2023-02-28T15:30:35;36.40;;;17.15;;
70414;SDS011;57837;52.064;113.478;2023-02-28T15:33:39;53.70;;;18.70;;
70414;SDS011;57837;52.064;113.478;2023-02-28T15:40:42;53.08;;;18.60;;
70414;SDS011;57837;52.064;113.478;2023-02-28T15:44:14;77.78;;;24.80;;
70414;SDS011;57837;52.064;113.478;2023-02-28T15:47:22;45.57;;;18.23;;
70414;SDS011;57837;52.064;113.478;2023-02-28T15:50:28;39.10;;;15.52;;
70414;SDS011;57837;52.064;113.478;2023-02-28T15:53:34;44.95;;;15.10;;
70414;SDS011;57837;52.064;113.478;2023-02-28T15:57:01;48.35;;;18.27;;
70414;SDS011;57837;52.064;113.478;2023-02-28T16:00:13;37.53;;;13.48;;
70414;SDS011;57837;52.064;113.478;2023-02-28T16:03:25;27.35;;;11.30;;
70414;SDS011;57837;52.064;113.478;2023-02-28T16:06:38;22.35;;;9.43;;
70414;SDS011;57837;52.064;113.478;2023-02-28T16:09:45;69.37;;;24.00;;
70414;SDS011;57837;52.064;113.478;2023-02-28T16:12:49;37.83;;;13.10;;
70414;SDS011;57837;52.064;113.478;2023-02-28T16:15:53;52.72;;;19.60;;
70414;SDS011;57837;52.064;113.478;2023-02-28T16:18:57;45.50;;;17.80;;
70414;SDS011;57837;52.064;113.478;2023-02-28T16:22:00;51.65;;;21.27;;
70414;SDS011;57837;52.064;113.478;2023-02-28T16:25:03;42.55;;;14.65;;
70414;SDS011;57837;52.064;113.478;2023-02-28T16:28:29;46.47;;;16.30;;
70414;SDS011;57837;52.064;113.478;2023-02-28T16:31:35;16.38;;;9.50;;
70414;SDS011;57837;52.064;113.478;2023-02-28T16:34:40;37.13;;;13.38;;
70414;SDS011;57837;52.064;113.478;2023-02-28T16:37:44;41.92;;;15.93;;
70414;SDS011;57837;52.064;113.478;2023-02-28T16:40:49;23.27;;;10.67;;
70414;SDS011;57837;52.064;113.478;2023-02-28T16:43:54;51.22;;;19.13;;
70414;SDS011;57837;52.064;113.478;2023-02-28T16:47:03;54.25;;;14.30;;
70414;SDS011;57837;52.064;113.478;2023-02-28T16:50:20;32.90;;;13.80;;
70414;SDS011;57837;52.064;113.478;2023-02-28T16:53:25;39.58;;;13.27;;
70414;SDS011;57837;52.064;113.478;2023-02-28T16:56:28;42.47;;;18.52;;
70414;SDS011;57837;52.064;113.478;2023-02-28T16:59:31;49.47;;;18.27;;
70414;SDS011;57837;52.064;113.478;2023-02-28T17:02:36;45.10;;;19.05;;
70414;SDS011;57837;52.064;113.478;2023-02-28T17:05:41;54.60;;;19.08;;
70414;SDS011;57837;52.064;113.478;2023-02-28T17:08:45;57.17;;;22.23;;
70414;SDS011;57837;52.064;113.478;2023-02-28T17:11:49;73.50;;;21.13;;
70414;SDS011;57837;52.064;113.478;2023-02-28T17:14:52;34.40;;;13.95;;
70414;SDS011;57837;52.064;113.478;2023-02-28T17:17:56;19.73;;;6.82;;
70414;SDS011;57837;52.064;113.478;2023-02-28T17:21:00;14.97;;;6.37;;
70414;SDS011;57837;52.064;113.478;2023-02-28T17:24:04;41.28;;;13.82;;
70414;SDS011;57837;52.064;113.478;2023-02-28T17:27:10;28.40;;;10.98;;
70414;SDS011;57837;52.064;113.478;2023-02-28T17:30:17;25.98;;;11.18;;
70414;SDS011;57837;52.064;113.478;2023-02-28T17:33:22;46.05;;;16.85;;
70414;SDS011;57837;52.064;113.478;2023-02-28T17:36:26;17.02;;;8.27;;
70414;SDS011;57837;52.064;113.478;2023-02-28T17:39:30;17.13;;;6.07;;
70414;SDS011;57837;52.064;113.478;2023-02-28T17:42:34;6.10;;;5.13;;
70414;SDS011;57837;52.064;113.478;2023-02-28T17:45:38;34.33;;;11.93;;
70414;SDS011;57837;52.064;113.478;2023-02-28T17:48:42;15.10;;;6.65;;
70414;SDS011;57837;52.064;113.478;2023-02-28T17:51:45;19.33;;;8.50;;
70414;SDS011;57837;52.064;113.478;2023-02-28T17:54:50;39.25;;;15.20;;
70414;SDS011;57837;52.064;113.478;2023-02-28T17:57:53;51.35;;;17.63;;
70414;SDS011;57837;52.064;113.478;2023-02-28T18:00:57;18.35;;;8.05;;
70414;SDS011;57837;52.064;113.478;2023-02-28T18:04:00;25.90;;;8.15;;
70414;SDS011;57837;52.064;113.478;2023-02-28T18:07:06;12.00;;;6.47;;
70414;SDS011;57837;52.064;113.478;2023-02-28T18:10:16;22.08;;;7.65;;
70414;SDS011;57837;52.064;113.478;2023-02-28T18:13:21;23.40;;;8.70;;
70414;SDS011;57837;52.064;113.478;2023-02-28T18:16:24;33.72;;;13.30;;
70414;SDS011;57837;52.064;113.478;2023-02-28T18:19:29;19.08;;;8.10;;
70414;SDS011;57837;52.064;113.478;2023-02-28T18:22:32;26.23;;;10.07;;
70414;SDS011;57837;52.064;113.478;2023-02-28T18:25:38;24.27;;;10.02;;
70414;SDS011;57837;52.064;113.478;2023-02-28T18:28:43;38.25;;;11.68;;
70414;SDS011;57837;52.064;113.478;2023-02-28T18:31:46;17.13;;;8.27;;
70414;SDS011;57837;52.064;113.478;2023-02-28T18:34:51;18.17;;;5.38;;
70414;SDS011;57837;52.064;113.478;2023-02-28T18:37:54;10.32;;;4.97;;
70414;SDS011;57837;52.064;113.478;2023-02-28T18:40:59;19.02;;;7.85;;
70414;SDS011;57837;52.064;113.478;2023-02-28T18:44:05;12.00;;;6.70;;
70414;SDS011;57837;52.064;113.478;2023-02-28T18:47:20;22.20;;;9.13;;
70414;SDS011;57837;52.064;113.478;2023-02-28T18:50:24;28.40;;;11.48;;
70414;SDS011;57837;52.064;113.478;2023-02-28T18:53:28;30.37;;;9.90;;
70414;SDS011;57837;52.064;113.478;2023-02-28T18:56:31;16.98;;;7.03;;
70414;SDS011;57837;52.064;113.478;2023-02-28T18:59:34;37.13;;;10.43;;
70414;SDS011;57837;52.064;113.478;2023-02-28T19:02:38;20.10;;;9.52;;
70414;SDS011;57837;52.064;113.478;2023-02-28T19:05:42;14.60;;;6.15;;
70414;SDS011;57837;52.064;113.478;2023-02-28T19:08:46;16.35;;;5.88;;
70414;SDS011;57837;52.064;113.478;2023-02-28T19:11:50;18.42;;;7.82;;
70414;SDS011;57837;52.064;113.478;2023-02-28T19:14:54;15.80;;;7.30;;
70414;SDS011;57837;52.064;113.478;2023-02-28T19:17:57;23.92;;;11.60;;
70414;SDS011;57837;52.064;113.478;2023-02-28T19:21:00;31.25;;;11.65;;
70414;SDS011;57837;52.064;113.478;2023-02-28T19:24:04;27.17;;;12.37;;
70414;SDS011;57837;52.064;113.478;2023-02-28T19:27:08;25.50;;;7.45;;
70414;SDS011;57837;52.064;113.478;2023-02-28T19:30:12;25.90;;;10.18;;
70414;SDS011;57837;52.064;113.478;2023-02-28T19:33:15;30.25;;;14.50;;
70414;SDS011;57837;52.064;113.478;2023-02-28T19:36:20;13.65;;;7.80;;
70414;SDS011;57837;52.064;113.478;2023-02-28T19:39:23;19.50;;;8.13;;
70414;SDS011;57837;52.064;113.478;2023-02-28T19:42:27;19.80;;;9.57;;
70414;SDS011;57837;52.064;113.478;2023-02-28T19:45:35;28.13;;;10.37;;
70414;SDS011;57837;52.064;113.478;2023-02-28T19:48:39;17.70;;;6.40;;
70414;SDS011;57837;52.064;113.478;2023-02-28T19:51:44;25.38;;;8.68;;
70414;SDS011;57837;52.064;113.478;2023-02-28T19:54:48;16.63;;;7.00;;
70414;SDS011;57837;52.064;113.478;2023-02-28T19:57:52;11.20;;;6.03;;
70414;SDS011;57837;52.064;113.478;2023-02-28T20:00:55;26.23;;;7.85;;
70414;SDS011;57837;52.064;113.478;2023-02-28T20:03:58;7.85;;;3.70;;
70414;SDS011;57837;52.064;113.478;2023-02-28T20:07:03;7.45;;;3.22;;
70414;SDS011;57837;52.064;113.478;2023-02-28T20:10:07;8.68;;;4.35;;
70414;SDS011;57837;52.064;113.478;2023-02-28T20:13:11;10.80;;;4.72;;
70414;SDS011;57837;52.064;113.478;2023-02-28T20:16:15;7.53;;;4.37;;
70414;SDS011;57837;52.064;113.478;2023-02-28T20:19:20;7.13;;;3.80;;
70414;SDS011;57837;52.064;113.478;2023-02-28T20:22:23;8.30;;;3.60;;